createdAt,value
2023-07-18T00:00:29.169Z,15.26
2023-07-18T00:02:57.065Z,15.16
2023-07-18T00:05:26.232Z,15.14
2023-07-18T00:07:53.827Z,15.10
2023-07-18T00:10:22.111Z,15.06
2023-07-18T00:12:49.854Z,15.03
2023-07-18T00:15:17.947Z,14.97
2023-07-18T00:17:46.024Z,14.93
2023-07-18T00:20:15.121Z,14.78
2023-07-18T00:22:44.310Z,14.71
2023-07-18T00:25:14.931Z,14.61
2023-07-18T00:27:42.762Z,14.58
2023-07-18T00:30:13.455Z,14.48
2023-07-18T00:32:41.466Z,14.39
2023-07-18T00:35:09.993Z,14.38
2023-07-18T00:37:37.876Z,14.35
2023-07-18T00:40:11.554Z,14.32
2023-07-18T00:42:39.148Z,14.35
2023-07-18T00:45:08.288Z,14.29
2023-07-18T00:47:39.165Z,14.32
2023-07-18T00:50:09.629Z,14.33
2023-07-18T00:52:38.248Z,14.30
2023-07-18T00:55:08.599Z,14.27
2023-07-18T00:57:36.698Z,14.25
2023-07-18T01:00:10.320Z,14.21
2023-07-18T01:02:39.279Z,14.13
2023-07-18T01:05:07.898Z,14.02
2023-07-18T01:07:35.738Z,13.87
2023-07-18T01:10:25.205Z,13.80
2023-07-18T01:12:53.408Z,13.64
2023-07-18T01:15:21.430Z,13.65
2023-07-18T01:17:50.236Z,13.64
2023-07-18T01:20:20.729Z,13.70
2023-07-18T01:22:51.031Z,13.71
2023-07-18T01:25:20.219Z,13.73
2023-07-18T01:27:48.851Z,13.68
2023-07-18T01:30:18.286Z,13.64
2023-07-18T01:32:50.042Z,13.65
2023-07-18T01:35:21.091Z,13.62
2023-07-18T01:37:50.067Z,13.63
2023-07-18T01:40:21.652Z,13.59
2023-07-18T01:42:51.372Z,13.66
2023-07-18T01:45:19.203Z,13.65
2023-07-18T01:47:47.741Z,13.66
2023-07-18T01:50:15.508Z,13.66
2023-07-18T01:52:43.132Z,13.59
2023-07-18T01:55:12.086Z,13.48
2023-07-18T01:57:46.673Z,13.43
2023-07-18T02:00:20.228Z,13.52
2023-07-18T02:02:49.805Z,13.57
2023-07-18T02:05:19.281Z,13.54
2023-07-18T02:07:48.084Z,13.52
2023-07-18T02:10:20.625Z,13.49
2023-07-18T02:12:48.618Z,13.49
2023-07-18T02:15:16.435Z,13.50
2023-07-18T02:17:44.946Z,13.44
2023-07-18T02:20:15.126Z,13.40
2023-07-18T02:22:44.779Z,13.43
2023-07-18T02:25:12.855Z,13.41
2023-07-18T02:27:42.598Z,13.38
2023-07-18T02:30:11.356Z,13.28
2023-07-18T02:32:40.089Z,13.25
2023-07-18T02:35:09.173Z,13.17
2023-07-18T02:37:37.303Z,12.92
2023-07-18T02:40:10.092Z,13.00
2023-07-18T02:42:38.154Z,12.96
2023-07-18T02:45:10.566Z,12.88
2023-07-18T02:47:38.956Z,12.89
2023-07-18T02:50:07.994Z,12.90
2023-07-18T02:52:35.704Z,12.88
2023-07-18T02:55:04.286Z,12.86
2023-07-18T02:57:32.895Z,12.80
2023-07-18T03:00:00.789Z,12.76
2023-07-18T03:02:31.567Z,12.74
2023-07-18T03:04:59.244Z,12.72
2023-07-18T03:07:27.448Z,12.71
2023-07-18T03:09:55.085Z,12.75
2023-07-18T03:12:23.243Z,12.73
2023-07-18T03:14:50.861Z,12.76
2023-07-18T03:17:18.479Z,12.77
2023-07-18T03:19:47.376Z,12.76
2023-07-18T03:22:15.701Z,12.73
2023-07-18T03:24:43.268Z,12.73
2023-07-18T03:27:10.936Z,12.73
2023-07-18T03:29:38.519Z,12.71
2023-07-18T03:32:07.349Z,12.72
2023-07-18T03:34:34.950Z,12.72
2023-07-18T03:37:03.923Z,12.70
2023-07-18T03:39:31.682Z,12.73
2023-07-18T03:41:59.855Z,12.72
2023-07-18T03:44:27.482Z,12.74
2023-07-18T03:47:05.596Z,12.78
2023-07-18T03:49:42.590Z,12.72
2023-07-18T03:52:11.528Z,12.80
2023-07-18T03:54:39.127Z,12.76
2023-07-18T03:57:07.977Z,12.76
2023-07-18T03:59:35.707Z,12.80
2023-07-18T04:02:03.333Z,12.77
2023-07-18T04:04:32.113Z,12.86
2023-07-18T04:06:59.709Z,12.85
2023-07-18T04:09:29.246Z,12.72
2023-07-18T04:11:56.875Z,12.95
2023-07-18T04:14:24.654Z,13.01
2023-07-18T04:16:52.446Z,13.06
2023-07-18T04:19:20.437Z,13.10
2023-07-18T04:21:48.020Z,13.14
2023-07-18T04:24:15.615Z,13.22
2023-07-18T04:26:44.502Z,13.26
2023-07-18T04:29:12.097Z,13.39
2023-07-18T04:31:39.772Z,13.41
2023-07-18T04:34:07.376Z,13.51
2023-07-18T04:36:35.155Z,13.53
2023-07-18T04:39:02.745Z,13.63
2023-07-18T04:41:41.155Z,13.66
2023-07-18T04:44:14.511Z,13.77
2023-07-18T04:46:42.285Z,13.87
2023-07-18T04:49:09.910Z,14.02
2023-07-18T04:51:37.572Z,14.21
2023-07-18T04:54:05.236Z,14.36
2023-07-18T04:56:32.787Z,14.57
2023-07-18T04:59:00.857Z,14.71
2023-07-18T05:01:30.244Z,14.84
2023-07-18T05:04:00.162Z,14.95
2023-07-18T05:06:27.820Z,15.16
2023-07-18T05:08:55.801Z,15.32
2023-07-18T05:11:23.471Z,15.49
2023-07-18T05:13:51.057Z,15.63
2023-07-18T05:16:18.820Z,15.68
2023-07-18T05:18:48.037Z,15.70
2023-07-18T05:21:16.452Z,15.72
2023-07-18T05:23:44.191Z,15.88
2023-07-18T05:26:11.871Z,15.90
2023-07-18T05:28:39.565Z,15.87
2023-07-18T05:31:09.010Z,16.08
2023-07-18T05:33:36.628Z,16.25
2023-07-18T05:36:06.236Z,16.30
2023-07-18T05:38:33.782Z,16.45
2023-07-18T05:41:01.422Z,16.54
2023-07-18T05:43:28.976Z,16.60
2023-07-18T05:45:56.559Z,16.56
2023-07-18T05:48:24.220Z,16.72
2023-07-18T05:50:51.759Z,16.77
2023-07-18T05:53:20.668Z,16.91
2023-07-18T05:55:48.975Z,16.97
2023-07-18T05:58:16.820Z,16.94
2023-07-18T06:00:44.519Z,17.04
2023-07-18T06:03:12.234Z,17.21
2023-07-18T06:05:39.912Z,17.23
2023-07-18T06:08:08.379Z,17.41
2023-07-18T06:10:37.482Z,17.65
2023-07-18T06:13:05.074Z,17.84
2023-07-18T06:15:32.769Z,17.87
2023-07-18T06:18:00.749Z,17.92
2023-07-18T06:20:28.481Z,18.05
2023-07-18T06:22:56.605Z,18.05
2023-07-18T06:25:24.933Z,18.27
2023-07-18T06:27:53.861Z,18.38
2023-07-18T06:30:21.572Z,18.45
2023-07-18T06:32:49.278Z,18.46
2023-07-18T06:35:23.530Z,18.60
2023-07-18T06:37:51.732Z,18.60
2023-07-18T06:40:19.673Z,18.72
2023-07-18T06:42:47.345Z,18.94
2023-07-18T06:45:16.358Z,19.07
2023-07-18T06:47:44.729Z,19.26
2023-07-18T06:50:13.025Z,19.09
2023-07-18T06:52:40.624Z,19.21
2023-07-18T06:55:10.625Z,19.24
2023-07-18T06:57:39.374Z,19.59
2023-07-18T07:00:12.747Z,19.93
2023-07-18T07:02:41.755Z,20.07
2023-07-18T07:05:10.194Z,20.03
2023-07-18T07:07:38.607Z,20.27
2023-07-18T07:10:09.815Z,20.25
2023-07-18T07:12:37.777Z,20.41
2023-07-18T07:15:06.177Z,20.54
2023-07-18T07:17:34.120Z,20.38
2023-07-18T07:20:03.074Z,20.63
2023-07-18T07:22:30.678Z,20.75
2023-07-18T07:24:58.424Z,20.90
2023-07-18T07:27:26.070Z,21.05
2023-07-18T07:29:54.087Z,21.15
2023-07-18T07:32:21.813Z,21.28
2023-07-18T07:34:49.582Z,21.55
2023-07-18T07:37:18.493Z,21.83
2023-07-18T07:39:46.120Z,21.76
2023-07-18T07:42:13.924Z,21.61
2023-07-18T07:44:41.713Z,21.70
2023-07-18T07:47:09.348Z,21.85
2023-07-18T07:49:37.055Z,21.86
2023-07-18T07:52:04.983Z,21.78
2023-07-18T07:54:33.994Z,21.85
2023-07-18T07:57:01.582Z,21.89
2023-07-18T07:59:29.114Z,21.87
2023-07-18T08:01:56.712Z,21.86
2023-07-18T08:04:25.289Z,22.02
2023-07-18T08:06:55.294Z,21.98
2023-07-18T08:09:24.036Z,22.17
2023-07-18T08:11:52.983Z,22.40
2023-07-18T08:14:20.569Z,22.57
2023-07-18T08:16:48.327Z,22.74
2023-07-18T08:19:15.938Z,22.90
2023-07-18T08:21:43.541Z,22.97
2023-07-18T08:24:11.117Z,23.11
2023-07-18T08:26:38.670Z,23.10
2023-07-18T08:29:07.592Z,23.19
2023-07-18T08:31:35.225Z,23.19
2023-07-18T08:34:03.843Z,22.98
2023-07-18T08:36:32.298Z,22.96
2023-07-18T08:39:00.335Z,22.98
2023-07-18T08:41:28.021Z,22.96
2023-07-18T08:43:55.969Z,22.98
2023-07-18T08:46:25.019Z,22.92
2023-07-18T08:48:52.925Z,23.28
2023-07-18T08:51:21.385Z,23.15
2023-07-18T08:53:49.412Z,23.41
2023-07-18T08:56:16.954Z,23.50
2023-07-18T08:58:44.533Z,23.66
2023-07-18T09:01:12.169Z,23.77
2023-07-18T09:03:41.728Z,23.92
2023-07-18T09:06:19.220Z,24.00
2023-07-18T09:08:47.094Z,24.05
2023-07-18T09:11:16.191Z,24.42
2023-07-18T09:13:44.161Z,24.95
2023-07-18T09:16:15.567Z,25.04
2023-07-18T09:18:51.445Z,24.84
2023-07-18T09:21:19.731Z,24.74
2023-07-18T09:23:48.365Z,24.86
2023-07-18T09:26:17.449Z,24.46
2023-07-18T09:28:45.104Z,24.46
2023-07-18T09:31:19.851Z,23.75
2023-07-18T09:33:48.628Z,24.18
2023-07-18T09:36:18.661Z,24.28
2023-07-18T09:38:47.459Z,24.48
2023-07-18T09:41:15.805Z,24.02
2023-07-18T09:43:44.123Z,24.10
2023-07-18T09:46:14.326Z,23.98
2023-07-18T09:48:45.310Z,23.89
2023-07-18T09:51:16.039Z,23.75
2023-07-18T09:53:47.422Z,23.97
2023-07-18T09:56:16.382Z,24.03
2023-07-18T09:58:44.715Z,24.07
2023-07-18T10:01:14.057Z,24.02
2023-07-18T10:03:41.947Z,24.18
2023-07-18T10:06:14.225Z,24.24
2023-07-18T10:08:47.224Z,24.35
2023-07-18T10:11:14.855Z,24.39
2023-07-18T10:13:43.672Z,24.53
2023-07-18T10:16:19.021Z,24.51
2023-07-18T10:18:47.084Z,24.40
2023-07-18T10:21:16.686Z,24.42
2023-07-18T10:23:45.950Z,24.27
2023-07-18T10:26:15.871Z,24.26
2023-07-18T10:28:44.869Z,24.51
2023-07-18T10:31:27.875Z,24.54
2023-07-18T10:34:11.747Z,24.76
2023-07-18T10:36:39.939Z,24.63
2023-07-18T10:39:11.483Z,24.70
2023-07-18T10:41:39.122Z,24.95
2023-07-18T10:44:07.609Z,25.27
2023-07-18T10:46:39.503Z,25.43
2023-07-18T10:49:07.418Z,25.54
2023-07-18T10:51:36.086Z,25.68
2023-07-18T10:54:05.326Z,25.57
2023-07-18T10:56:34.223Z,25.65
2023-07-18T10:59:01.797Z,25.56
2023-07-18T11:01:29.620Z,25.83
2023-07-18T11:03:57.536Z,25.70
2023-07-18T11:06:25.249Z,26.09
2023-07-18T11:08:52.808Z,26.30
2023-07-18T11:11:20.623Z,26.38
2023-07-18T11:13:49.845Z,26.66
2023-07-18T11:16:18.196Z,26.73
2023-07-18T11:18:47.295Z,26.87
2023-07-18T11:21:15.581Z,26.91
2023-07-18T11:23:44.204Z,26.94
2023-07-18T11:26:15.881Z,26.82
2023-07-18T11:28:44.754Z,26.89
2023-07-18T11:33:59.116Z,26.98
2023-07-18T11:36:30.229Z,27.20
2023-07-18T11:38:59.277Z,27.07
2023-07-18T11:41:34.319Z,26.90
2023-07-18T11:44:02.557Z,27.12
2023-07-18T11:46:43.842Z,27.33
2023-07-18T11:49:14.252Z,27.56
2023-07-18T11:51:42.443Z,27.94
2023-07-18T11:54:10.088Z,28.13
2023-07-18T11:56:38.245Z,28.23
2023-07-18T11:59:05.871Z,28.45
2023-07-18T12:01:38.282Z,28.76
2023-07-18T12:04:14.012Z,28.49
2023-07-18T12:06:42.406Z,27.95
2023-07-18T12:09:10.303Z,28.23
2023-07-18T12:11:37.886Z,28.34
2023-07-18T12:14:07.574Z,28.84
2023-07-18T12:16:35.389Z,28.89
2023-07-18T12:19:04.103Z,29.21
2023-07-18T12:21:33.132Z,28.93
2023-07-18T12:24:00.734Z,28.49
2023-07-18T12:26:28.456Z,28.36
2023-07-18T12:28:56.021Z,28.54
2023-07-18T12:31:23.925Z,29.08
2023-07-18T12:33:53.100Z,29.09
2023-07-18T12:36:21.489Z,28.91
2023-07-18T12:38:50.721Z,28.87
2023-07-18T12:41:19.013Z,29.70
2023-07-18T12:43:46.892Z,30.50
2023-07-18T12:46:14.472Z,30.87
2023-07-18T12:51:12.591Z,29.90
2023-07-18T12:53:40.136Z,30.36
2023-07-18T12:56:09.088Z,29.11
2023-07-18T12:58:36.843Z,29.64
2023-07-18T13:01:04.393Z,29.83
2023-07-18T13:03:34.167Z,29.58
2023-07-18T13:06:02.164Z,29.33
2023-07-18T13:08:30.032Z,28.88
2023-07-18T13:10:57.666Z,28.62
2023-07-18T13:13:26.829Z,28.19
2023-07-18T13:15:54.513Z,28.31
2023-07-18T13:18:22.222Z,28.15
2023-07-18T13:20:49.805Z,27.86
2023-07-18T13:23:17.500Z,28.01
2023-07-18T13:25:45.111Z,28.06
2023-07-18T13:28:12.730Z,28.25
2023-07-18T13:30:42.958Z,28.47
2023-07-18T13:33:10.678Z,28.21
2023-07-18T13:35:38.313Z,28.24
2023-07-18T13:38:06.124Z,28.42
2023-07-18T13:40:33.739Z,28.67
2023-07-18T13:43:01.729Z,29.30
2023-07-18T13:45:29.263Z,30.38
2023-07-18T13:47:58.251Z,31.32
2023-07-18T13:52:56.400Z,35.42
2023-07-18T13:55:23.985Z,34.67
2023-07-18T13:57:51.550Z,35.64
2023-07-18T14:00:19.763Z,35.76
2023-07-18T14:02:47.761Z,36.15
2023-07-18T14:05:17.205Z,37.40
2023-07-18T14:07:44.843Z,36.57
2023-07-18T14:10:12.467Z,34.77
2023-07-18T14:12:40.875Z,33.75
2023-07-18T14:15:09.731Z,32.96
2023-07-18T14:17:37.361Z,32.58
2023-07-18T14:20:06.596Z,32.37
2023-07-18T14:22:35.762Z,31.92
2023-07-18T14:25:03.426Z,31.41
2023-07-18T14:27:31.010Z,30.65
2023-07-18T14:29:58.591Z,30.79
2023-07-18T14:32:26.230Z,30.40
2023-07-18T14:34:54.033Z,30.01
2023-07-18T14:37:21.643Z,29.90
2023-07-18T14:40:00.104Z,29.53
2023-07-18T14:42:27.789Z,29.87
2023-07-18T14:44:55.374Z,30.08
2023-07-18T14:47:23.004Z,30.27
2023-07-18T14:49:50.571Z,30.21
2023-07-18T14:52:18.180Z,30.36
2023-07-18T14:54:45.865Z,30.41
2023-07-18T14:57:14.825Z,30.14
2023-07-18T14:59:42.428Z,30.10
2023-07-18T15:02:11.051Z,30.18
2023-07-18T15:04:38.641Z,29.85
2023-07-18T15:07:06.206Z,29.94
2023-07-18T15:09:33.737Z,30.00
2023-07-18T15:12:01.318Z,29.54
2023-07-18T15:14:30.265Z,29.57
2023-07-18T15:16:58.285Z,29.41
2023-07-18T15:19:25.915Z,29.60
2023-07-18T15:21:53.774Z,29.68
2023-07-18T15:24:21.786Z,29.72
2023-07-18T15:26:49.667Z,29.58
2023-07-18T15:29:17.324Z,29.58
2023-07-18T15:31:46.286Z,29.48
2023-07-18T15:34:14.023Z,29.50
2023-07-18T15:36:42.317Z,29.30
2023-07-18T15:39:10.091Z,29.40
2023-07-18T15:41:38.362Z,29.48
2023-07-18T15:44:06.276Z,29.52
2023-07-18T15:46:34.190Z,29.31
2023-07-18T15:49:04.169Z,28.96
2023-07-18T15:51:32.485Z,28.98
2023-07-18T15:54:00.072Z,28.79
2023-07-18T15:56:27.760Z,28.51
2023-07-18T15:58:55.325Z,28.81
2023-07-18T16:01:24.025Z,28.72
2023-07-18T16:03:51.875Z,28.33
2023-07-18T16:06:21.966Z,28.39
2023-07-18T16:08:49.849Z,28.37
2023-07-18T16:11:17.675Z,28.44
2023-07-18T16:13:46.971Z,28.41
2023-07-18T16:16:14.957Z,28.51
2023-07-18T16:18:53.474Z,28.52
2023-07-18T16:21:22.695Z,28.47
2023-07-18T16:23:51.047Z,28.37
2023-07-18T16:26:19.759Z,28.25
2023-07-18T16:28:47.997Z,28.41
2023-07-18T16:31:15.599Z,28.52
2023-07-18T16:33:43.353Z,28.55
2023-07-18T16:36:11.716Z,28.53
2023-07-18T16:38:40.715Z,28.37
2023-07-18T16:41:08.569Z,28.11
2023-07-18T16:43:36.276Z,27.95
2023-07-18T16:46:03.879Z,27.92
2023-07-18T16:48:31.868Z,27.79
2023-07-18T16:50:59.504Z,27.51
2023-07-18T16:53:27.280Z,27.60
2023-07-18T16:55:56.141Z,27.53
2023-07-18T16:58:23.737Z,27.11
2023-07-18T17:00:51.298Z,27.04
2023-07-18T17:03:20.872Z,26.82
2023-07-18T17:05:48.656Z,26.71
2023-07-18T17:08:16.640Z,26.76
2023-07-18T17:10:44.540Z,26.55
2023-07-18T17:13:13.449Z,26.54
2023-07-18T17:15:41.222Z,25.57
2023-07-18T17:18:09.498Z,25.13
2023-07-18T17:20:37.151Z,24.35
2023-07-18T17:23:05.159Z,24.19
2023-07-18T17:25:33.101Z,23.75
2023-07-18T17:28:00.827Z,23.84
2023-07-18T17:30:30.354Z,23.89
2023-07-18T17:32:58.192Z,23.60
2023-07-18T17:35:25.996Z,23.70
2023-07-18T17:37:53.678Z,23.61
2023-07-18T17:40:21.291Z,23.62
2023-07-18T17:42:48.889Z,23.56
2023-07-18T17:45:17.607Z,23.50
2023-07-18T17:47:47.995Z,23.58
2023-07-18T17:50:16.098Z,23.46
2023-07-18T17:52:44.639Z,23.55
2023-07-18T17:55:12.245Z,23.58
2023-07-18T17:57:41.143Z,23.55
2023-07-18T18:00:09.916Z,23.49
2023-07-18T18:02:37.555Z,23.32
2023-07-18T18:05:36.248Z,23.34
2023-07-18T18:08:04.787Z,23.30
2023-07-18T18:10:32.464Z,23.31
2023-07-18T18:13:00.130Z,23.31
2023-07-18T18:15:28.392Z,23.17
2023-07-18T18:17:56.264Z,23.20
2023-07-18T18:20:25.170Z,23.17
2023-07-18T18:22:52.801Z,23.24
2023-07-18T18:25:21.048Z,23.23
2023-07-18T18:27:48.714Z,23.29
2023-07-18T18:30:16.277Z,23.30
2023-07-18T18:32:43.957Z,23.25
2023-07-18T18:35:11.576Z,23.25
2023-07-18T18:37:41.159Z,23.22
2023-07-18T18:40:09.851Z,23.21
2023-07-18T18:42:37.463Z,23.13
2023-07-18T18:45:05.971Z,23.03
2023-07-18T18:47:33.619Z,22.89
2023-07-18T18:50:01.285Z,22.76
2023-07-18T18:52:28.887Z,22.55
2023-07-18T18:55:12.843Z,22.39
2023-07-18T18:57:45.138Z,22.12
2023-07-18T19:00:13.198Z,22.14
2023-07-18T19:02:41.739Z,22.07
2023-07-18T19:05:10.456Z,21.94
2023-07-18T19:07:38.179Z,21.81
2023-07-18T19:10:09.442Z,21.65
2023-07-18T19:12:37.044Z,21.53
2023-07-18T19:15:05.181Z,21.37
2023-07-18T19:17:32.987Z,21.29
2023-07-18T19:20:00.710Z,21.14
2023-07-18T19:22:28.370Z,21.11
2023-07-18T19:24:56.005Z,21.03
2023-07-18T19:27:24.959Z,20.99
2023-07-18T19:29:52.777Z,20.96
2023-07-18T19:32:20.538Z,20.93
2023-07-18T19:34:48.332Z,20.90
2023-07-18T19:37:16.127Z,20.90
2023-07-18T19:39:43.714Z,20.90
2023-07-18T19:42:11.520Z,20.89
2023-07-18T19:44:40.506Z,20.92
2023-07-18T19:47:08.266Z,20.91
2023-07-18T19:49:35.822Z,20.86
2023-07-18T19:52:03.441Z,20.87
2023-07-18T19:54:30.993Z,20.81
2023-07-18T19:56:58.548Z,20.81
2023-07-18T19:59:26.271Z,20.74
2023-07-18T20:01:55.691Z,20.68
2023-07-18T20:04:23.374Z,20.61
2023-07-18T20:06:51.074Z,20.48
2023-07-18T20:09:19.052Z,20.39
2023-07-18T20:11:46.656Z,20.33
2023-07-18T20:14:14.264Z,20.26
2023-07-18T20:16:42.925Z,20.20
2023-07-18T20:19:12.016Z,20.07
2023-07-18T20:21:42.967Z,19.97
2023-07-18T20:24:10.870Z,19.89
2023-07-18T20:26:39.433Z,19.85
2023-07-18T20:29:07.267Z,19.80
2023-07-18T20:31:34.942Z,19.83
2023-07-18T20:34:02.555Z,19.88
2023-07-18T20:36:31.449Z,19.91
2023-07-18T20:38:59.020Z,19.92
2023-07-18T20:41:28.808Z,19.95
2023-07-18T20:43:56.433Z,19.93
2023-07-18T20:46:24.194Z,19.92
2023-07-18T20:48:51.888Z,19.92
2023-07-18T20:51:19.739Z,19.93
2023-07-18T20:53:48.822Z,19.99
2023-07-18T20:56:16.807Z,19.98
2023-07-18T20:58:44.351Z,20.05
2023-07-18T21:01:11.910Z,20.04
2023-07-18T21:03:39.650Z,20.05
2023-07-18T21:06:07.318Z,20.08
2023-07-18T21:08:34.980Z,20.10
2023-07-18T21:11:03.961Z,20.16
2023-07-18T21:13:31.531Z,20.17
2023-07-18T21:15:59.246Z,20.21
2023-07-18T21:18:26.862Z,20.13
2023-07-18T21:20:54.457Z,20.06
2023-07-18T21:23:23.016Z,20.03
2023-07-18T21:25:50.607Z,20.06
2023-07-18T21:28:19.530Z,20.01
2023-07-18T21:30:47.161Z,19.95
2023-07-18T21:33:15.419Z,19.93
2023-07-18T21:35:43.067Z,19.88
2023-07-18T21:38:10.628Z,19.78
2023-07-18T21:40:38.329Z,19.66
2023-07-18T21:43:05.954Z,19.48
2023-07-18T21:45:34.929Z,19.54
2023-07-18T21:48:02.835Z,19.42
2023-07-18T21:50:30.427Z,19.23
2023-07-18T21:52:58.121Z,18.99
2023-07-18T21:55:25.730Z,19.11
2023-07-18T21:57:53.277Z,19.09
2023-07-18T22:00:20.873Z,19.01
2023-07-18T22:02:49.881Z,18.94
2023-07-18T22:05:17.671Z,18.89
2023-07-18T22:07:45.964Z,18.82
2023-07-18T22:10:15.047Z,18.71
2023-07-18T22:12:43.011Z,18.65
2023-07-18T22:15:11.567Z,18.62
2023-07-18T22:17:40.545Z,18.63
2023-07-18T22:20:10.500Z,18.61
2023-07-18T22:22:38.965Z,18.59
2023-07-18T22:25:07.772Z,18.55
2023-07-18T22:27:35.344Z,18.60
2023-07-18T22:30:03.185Z,18.55
2023-07-18T22:32:32.705Z,18.49
2023-07-18T22:35:00.751Z,18.46
2023-07-18T22:37:29.755Z,18.46
2023-07-18T22:39:57.324Z,18.50
2023-07-18T22:42:24.921Z,18.52
2023-07-18T22:44:52.472Z,18.54
2023-07-18T22:47:20.577Z,18.49
2023-07-18T22:49:48.727Z,18.52
2023-07-18T22:52:19.221Z,18.54
2023-07-18T22:54:50.640Z,18.57
2023-07-18T22:57:18.314Z,18.64
2023-07-18T22:59:47.999Z,18.69
2023-07-18T23:02:15.686Z,18.73
2023-07-18T23:04:43.288Z,18.82
2023-07-18T23:07:10.917Z,18.88
2023-07-18T23:09:38.691Z,18.89
2023-07-18T23:12:09.168Z,18.83
2023-07-18T23:14:36.761Z,18.78
2023-07-18T23:17:04.648Z,18.76
2023-07-18T23:19:32.663Z,18.76
2023-07-18T23:22:00.225Z,18.76
2023-07-18T23:24:27.830Z,18.79
2023-07-18T23:26:55.386Z,18.80
2023-07-18T23:29:24.365Z,18.77
2023-07-18T23:31:51.972Z,18.74
2023-07-18T23:34:19.569Z,18.72
2023-07-18T23:36:47.170Z,18.73
2023-07-18T23:39:15.238Z,18.75
2023-07-18T23:41:43.107Z,18.72
2023-07-18T23:44:10.955Z,18.68
2023-07-18T23:46:40.036Z,18.61
2023-07-18T23:49:07.711Z,18.56
2023-07-18T23:51:35.379Z,18.46
2023-07-18T23:54:03.075Z,18.36
2023-07-18T23:56:30.724Z,18.21
2023-07-18T23:58:58.396Z,18.08
